Time;durP1;ratioP1;P1;durP2;ratioP2;P2;SDS_P1;SDS_P2;PMS_P1;PMS_P2;Temp;Humidity;BMP_temperature;BMP_pressure;BME280_temperature;BME280_humidity;BME280_pressure;Samples;Min_cycle;Max_cycle;Signal;HPM_P1;HPM_P2
2021/03/17 09:00:08;;;;;;;26.97;15.23;;;;;;;5.01;69.48;97931.45;1733556;83;21061;-70
2021/03/17 09:02:42;;;;;;;33.70;15.93;;;;;;;5.10;68.62;97935.87;1698319;83;21493;-62
2021/03/17 09:05:23;;;;;;;29.35;15.23;;;;;;;5.08;68.68;97940.09;1698256;83;21058;-69
2021/03/17 09:08:09;;;;;;;29.57;15.68;;;;;;;5.09;68.61;97944.36;1698220;83;21070;-65
2021/03/17 09:10:46;;;;;;;23.45;13.72;;;;;;;5.06;68.96;97944.31;1698065;84;21102;-69
2021/03/17 09:13:49;;;;;;;28.12;14.45;;;;;;;5.14;68.87;97946.17;1890064;76;22223;-66
2021/03/17 09:16:17;;;;;;;33.35;14.60;;;;;;;5.10;68.40;97946.09;1791489;80;21301;-70
2021/03/17 09:19:09;;;;;;;31.45;14.20;;;;;;;5.07;68.49;97947.33;1822789;78;21727;-73
2021/03/17 09:21:43;;;;;;;23.30;13.83;;;;;;;5.05;68.68;97951.13;1786117;80;21581;-73
2021/03/17 09:24:32;;;;;;;28.10;14.70;;;;;;;5.09;68.65;97956.75;1870642;76;22133;-73
2021/03/17 09:27:02;;;;;;;;;;;;;;;5.15;68.57;97958.54;1830316;77;21142;-66
2021/03/17 09:29:30;;;;;;;21.25;13.25;;;;;;;5.21;68.54;97952.23;1827830;78;20150;-61
2021/03/17 09:31:59;;;;;;;28.30;13.55;;;;;;;5.30;68.30;97952.81;1827918;78;21142;-68
2021/03/17 09:34:32;;;;;;;24.75;12.82;;;;;;;5.37;67.92;97952.08;1827916;78;21272;-68
2021/03/17 09:37:11;;;;;;;;;;;;;;;5.42;67.69;97952.58;1830450;78;21541;-72
2021/03/17 09:39:48;;;;;;;25.50;12.10;;;;;;;5.50;67.44;97956.95;1827817;78;20257;-65
2021/03/17 09:42:20;;;;;;;24.18;11.70;;;;;;;5.56;67.72;97964.70;1827791;77;21321;-70
2021/03/17 09:44:57;;;;;;;;;;;;;;;5.65;67.27;97961.02;1830560;78;21149;-68
2021/03/17 09:47:30;;;;;;;25.27;12.58;;;;;;;5.60;66.56;97953.69;1827830;78;20321;-70
2021/03/17 09:49:59;;;;;;;18.73;10.95;;;;;;;5.53;67.07;97960.83;1827559;77;21130;-62
2021/03/17 09:52:27;;;;;;;25.17;12.05;;;;;;;5.54;67.26;97963.82;1827852;77;21333;-73
2021/03/17 09:54:55;;;;;;;26.42;12.07;;;;;;;5.57;66.96;97955.78;1827806;77;21200;-66
2021/03/17 09:57:23;;;;;;;24.30;12.25;;;;;;;5.59;67.20;97960.48;1827542;77;21130;-70
2021/03/17 09:59:52;;;;;;;26.65;10.93;;;;;;;5.69;67.04;97958.92;1827617;78;21270;-65
2021/03/17 10:02:25;;;;;;;17.27;10.48;;;;;;;5.76;66.64;97958.17;1827734;77;21257;-68
2021/03/17 10:04:58;;;;;;;21.70;10.85;;;;;;;5.81;66.25;97956.53;1827840;78;21565;-70
2021/03/17 10:07:28;;;;;;;;;;;;;;;5.80;65.93;97959.95;1830357;77;21213;-73
2021/03/17 10:09:58;;;;;;;19.92;10.15;;;;;;;5.81;66.02;97959.09;1827734;77;20217;-67
2021/03/17 10:12:30;;;;;;;18.10;9.98;;;;;;;5.79;65.58;97955.65;1827713;78;21174;-71
2021/03/17 10:15:11;;;;;;;21.73;11.05;;;;;;;5.79;65.71;97957.35;1827780;78;21209;-67
2021/03/17 10:17:40;;;;;;;22.70;9.65;;;;;;;5.79;65.94;97953.09;1827521;77;21141;-65
2021/03/17 10:20:18;;;;;;;22.22;10.98;;;;;;;5.87;65.65;97950.20;1827819;77;21139;-68
2021/03/17 10:22:48;;;;;;;17.37;9.30;;;;;;;5.88;65.35;97948.09;1805576;79;21154;-67
2021/03/17 10:25:20;;;;;;;19.87;10.13;;;;;;;5.91;65.43;97943.87;1822004;79;21130;-70
2021/03/17 10:27:59;;;;;;;24.65;11.43;;;;;;;5.94;65.07;97941.38;1822007;79;21296;-63
2021/03/17 10:30:37;;;;;;;24.90;9.98;;;;;;;5.96;65.09;97938.41;1822144;77;21268;-67
2021/03/17 10:33:11;;;;;;;17.77;9.20;;;;;;;6.02;65.05;97939.76;1821192;77;21135;-69
2021/03/17 10:35:43;;;;;;;16.80;8.93;;;;;;;6.06;64.53;97943.66;1821426;79;21150;-71
2021/03/17 10:38:12;;;;;;;22.00;9.33;;;;;;;6.02;64.44;97943.60;1821417;79;21196;-64
2021/03/17 10:40:40;;;;;;;14.70;9.15;;;;;;;6.03;64.70;97949.15;1821467;79;21300;-73
2021/03/17 10:43:14;;;;;;;17.42;8.65;;;;;;;6.15;64.48;97945.89;1821783;77;21664;-72
2021/03/17 10:45:53;;;;;;;20.77;8.70;;;;;;;6.21;64.21;97946.84;1821730;79;21661;-68
2021/03/17 10:48:24;;;;;;;19.62;9.48;;;;;;;6.14;64.07;97951.44;1801174;79;21312;-73
2021/03/17 10:50:54;;;;;;;25.65;9.80;;;;;;;6.06;64.56;97951.34;1821438;77;21159;-71
2021/03/17 10:53:34;;;;;;;21.12;9.03;;;;;;;6.07;64.59;97951.77;1821464;79;21170;-67
2021/03/17 10:56:01;;;;;;;18.82;8.83;;;;;;;6.15;64.50;97949.30;1821744;79;21181;-73
2021/03/17 10:58:33;;;;;;;20.43;8.78;;;;;;;6.17;64.39;97951.47;1821724;79;21155;-69
2021/03/17 11:01:02;;;;;;;;;;;;;;;6.18;64.47;97951.05;1823523;78;21253;-68
2021/03/17 11:03:39;;;;;;;17.77;8.30;;;;;;;6.19;64.09;97950.22;1821700;77;20488;-73
2021/03/17 11:06:18;;;;;;;19.62;9.23;;;;;;;6.14;64.06;97941.19;1821602;79;21143;-68
2021/03/17 11:09:06;;;;;;;14.87;8.35;;;;;;;5.99;64.20;97943.56;1821370;79;21280;-70
2021/03/17 11:11:52;;;;;;;21.05;8.85;;;;;;;5.88;64.30;97939.14;1821311;79;21123;-68
2021/03/17 11:14:36;;;;;;;18.62;8.05;;;;;;;5.90;64.71;97937.00;1821382;78;21289;-71
2021/03/17 11:17:07;;;;;;;20.70;8.48;;;;;;;5.99;64.85;97938.45;1821677;77;21217;-70
2021/03/17 11:19:37;;;;;;;17.60;8.05;;;;;;;6.09;64.50;97941.56;1821439;79;21573;-70
2021/03/17 11:22:05;;;;;;;22.75;8.75;;;;;;;6.16;64.23;97944.64;1821568;79;21130;-71
2021/03/17 11:24:32;;;;;;;17.17;8.68;;;;;;;6.20;63.81;97941.25;1813964;79;21297;-65
2021/03/17 11:27:00;;;;;;;20.92;8.38;;;;;;;6.17;63.87;97942.50;1812908;79;21269;-70
2021/03/17 11:29:30;;;;;;;19.60;7.58;;;;;;;6.19;64.11;97945.95;1812783;79;21131;-66
2021/03/17 11:32:08;;;;;;;20.40;8.28;;;;;;;6.28;64.15;97947.35;1812800;78;21279;-72
2021/03/17 11:34:36;;;;;;;20.30;8.10;;;;;;;6.36;63.39;97946.16;1812763;79;21297;-73
2021/03/17 11:37:04;;;;;;;14.38;7.28;;;;;;;6.27;62.71;97951.16;1812782;79;21131;-67
2021/03/17 11:39:34;;;;;;;21.85;7.60;;;;;;;6.19;63.03;97945.95;1812801;78;21147;-70
2021/03/17 11:42:02;;;;;;;18.50;8.58;;;;;;;6.18;63.19;97952.33;1812749;78;21272;-68
2021/03/17 11:44:30;;;;;;;16.32;8.53;;;;;;;6.22;62.83;97945.13;1813103;79;21274;-66
2021/03/17 11:46:58;;;;;;;22.10;8.40;;;;;;;6.13;62.78;97940.77;1813093;79;21268;-71
2021/03/17 11:49:27;;;;;;;18.70;7.85;;;;;;;6.06;63.24;97941.53;1812865;78;21127;-72
2021/03/17 11:51:55;;;;;;;22.35;8.20;;;;;;;6.11;63.64;97945.01;1813000;79;21134;-70
2021/03/17 11:54:25;;;;;;;21.70;7.90;;;;;;;6.15;63.45;97949.30;1812794;79;21264;-64
2021/03/17 11:56:56;;;;;;;19.10;8.28;;;;;;;6.15;63.19;97946.75;1813025;79;21268;-70
2021/03/17 11:59:24;;;;;;;15.70;7.35;;;;;;;6.04;63.17;97950.46;1812910;79;21095;-66
2021/03/17 12:01:53;;;;;;;20.00;8.50;;;;;;;5.91;63.07;97953.68;1812966;78;21692;-72
2021/03/17 12:04:23;;;;;;;16.05;7.80;;;;;;;5.82;63.56;97946.72;1812983;78;21272;-67
2021/03/17 12:06:51;;;;;;;13.38;7.50;;;;;;;5.79;63.84;97945.41;1813161;79;21122;-67
2021/03/17 12:09:20;;;;;;;22.55;7.35;;;;;;;5.79;64.05;97949.67;1813002;79;21267;-69
2021/03/17 12:11:50;;;;;;;16.48;7.28;;;;;;;5.81;63.91;97945.44;1812760;79;21084;-70
2021/03/17 12:14:20;;;;;;;18.92;7.65;;;;;;;5.87;63.92;97950.20;1812908;78;21147;-68
2021/03/17 12:16:48;;;;;;;21.15;8.95;;;;;;;5.93;63.54;97949.84;1812914;78;21270;-70
2021/03/17 12:19:16;;;;;;;16.60;8.10;;;;;;;5.94;63.72;97940.09;1812888;79;21123;-74
2021/03/17 12:21:43;;;;;;;16.87;7.58;;;;;;;5.93;63.77;97949.84;1812905;79;21155;-68
2021/03/17 12:24:12;;;;;;;14.05;7.90;;;;;;;5.85;63.94;97940.39;1821326;77;21146;-64
2021/03/17 12:26:40;;;;;;;25.82;8.00;;;;;;;5.80;64.30;97947.14;1827298;78;21151;-68
2021/03/17 12:29:08;;;;;;;19.77;7.83;;;;;;;5.77;64.58;97948.78;1827103;77;21103;-68
2021/03/17 12:31:36;;;;;;;19.48;8.88;;;;;;;5.80;64.64;97953.55;1827307;78;21143;-67
2021/03/17 12:34:04;;;;;;;22.42;9.13;;;;;;;5.82;64.88;97949.28;1827093;77;21257;-66
2021/03/17 12:36:32;;;;;;;19.57;7.80;;;;;;;5.80;64.64;97945.87;1827491;77;21281;-67
2021/03/17 12:39:00;;;;;;;16.93;8.25;;;;;;;5.81;64.89;97950.13;1827215;78;21099;-64
2021/03/17 12:41:28;;;;;;;21.30;7.75;;;;;;;5.86;64.74;97956.60;1827116;78;21130;-68
2021/03/17 12:43:56;;;;;;;25.10;8.38;;;;;;;5.91;64.70;97956.23;1827034;78;21130;-71
2021/03/17 12:46:24;;;;;;;20.92;8.83;;;;;;;5.94;64.53;97955.45;1827399;78;21126;-68
2021/03/17 12:48:52;;;;;;;19.25;8.60;;;;;;;5.87;64.33;97954.05;1827140;78;21277;-73
2021/03/17 12:51:20;;;;;;;20.52;9.05;;;;;;;5.82;64.43;97955.68;1827441;78;21146;-62
2021/03/17 12:53:48;;;;;;;17.37;7.70;;;;;;;5.79;64.10;97956.92;1827303;78;21248;-64
2021/03/17 12:56:16;;;;;;;18.90;8.08;;;;;;;5.73;63.91;97954.30;1827307;78;21273;-71
2021/03/17 12:58:44;;;;;;;18.25;8.25;;;;;;;5.71;64.26;97957.25;1827078;78;21280;-63
2021/03/17 13:01:12;;;;;;;17.60;8.60;;;;;;;5.74;64.32;97962.41;1827385;78;21264;-66
2021/03/17 13:03:40;;;;;;;18.62;9.38;;;;;;;5.78;64.38;97959.06;1827126;77;21158;-67
2021/03/17 13:06:08;;;;;;;19.65;9.10;;;;;;;5.81;64.23;97965.49;1827299;77;21268;-70
2021/03/17 13:08:37;;;;;;;19.15;8.18;;;;;;;5.82;64.21;97965.92;1827275;78;21264;-64
2021/03/17 13:11:06;;;;;;;17.17;8.23;;;;;;;5.82;64.04;97959.52;1827269;77;21367;-66
2021/03/17 13:13:35;;;;;;;22.10;7.97;;;;;;;5.82;64.02;97964.64;1827364;78;21123;-64
2021/03/17 13:16:04;;;;;;;18.87;7.42;;;;;;;5.80;63.41;97970.58;1827453;78;21269;-70
2021/03/17 13:18:32;;;;;;;22.60;7.17;;;;;;;5.76;63.23;97969.69;1827373;78;21138;-64
2021/03/17 13:21:01;;;;;;;17.60;7.28;;;;;;;5.73;63.49;97975.20;1827379;78;21286;-69
2021/03/17 13:23:30;;;;;;;22.37;8.43;;;;;;;5.75;63.64;97973.10;1827208;77;21358;-65
2021/03/17 13:25:58;;;;;;;24.12;9.43;;;;;;;5.80;63.58;97974.03;1827126;78;21150;-64
2021/03/17 13:28:27;;;;;;;26.50;8.73;;;;;;;5.83;63.36;97980.89;1827342;78;21130;-71
2021/03/17 13:30:54;;;;;;;19.57;8.35;;;;;;;5.82;63.32;97982.56;1827084;78;21119;-68
2021/03/17 13:33:23;;;;;;;16.25;8.00;;;;;;;5.81;63.35;97978.72;1827225;77;21114;-65
2021/03/17 13:35:51;;;;;;;17.15;7.72;;;;;;;5.79;63.31;97976.13;1827296;78;21417;-65
2021/03/17 13:38:20;;;;;;;18.02;7.85;;;;;;;5.77;63.56;97982.06;1827390;77;21386;-73
2021/03/17 13:40:50;;;;;;;17.15;7.50;;;;;;;5.73;63.39;97982.45;1827283;78;21268;-72
2021/03/17 13:43:18;;;;;;;19.90;6.72;;;;;;;5.70;63.56;97978.58;1827242;78;21107;-71
2021/03/17 13:45:46;;;;;;;14.90;6.12;;;;;;;5.68;63.77;97984.09;1827080;77;21269;-63
2021/03/17 13:48:16;;;;;;;32.25;7.50;;;;;;;5.66;63.91;97985.76;1827111;78;21122;-68
2021/03/17 13:50:45;;;;;;;18.50;7.53;;;;;;;5.61;64.05;97985.69;1827098;78;21131;-69
2021/03/17 13:53:14;;;;;;;17.00;6.40;;;;;;;5.58;64.28;97986.07;1827415;77;21146;-68
2021/03/17 13:55:44;;;;;;;16.07;6.87;;;;;;;5.56;64.56;97986.03;1827131;77;21707;-69
2021/03/17 13:58:12;;;;;;;15.70;7.67;;;;;;;5.55;64.83;97989.87;1827329;78;21162;-66
2021/03/17 14:00:40;;;;;;;17.05;7.60;;;;;;;5.54;65.05;97989.41;1827142;78;21269;-71
2021/03/17 14:03:22;;;;;;;15.60;7.15;;;;;;;5.56;65.18;97986.46;1749141;81;21494;-67
2021/03/17 14:05:51;;;;;;;19.05;7.00;;;;;;;5.62;65.31;97982.70;1748751;82;21652;-67
2021/03/17 14:08:19;;;;;;;15.75;7.60;;;;;;;5.68;65.35;97989.63;1748676;82;21107;-66
2021/03/17 14:10:49;;;;;;;17.67;7.42;;;;;;;5.71;65.34;97993.09;1748629;81;21138;-74
2021/03/17 14:13:16;;;;;;;17.90;6.83;;;;;;;5.72;65.34;97989.67;1748561;82;21138;-67
2021/03/17 14:15:45;;;;;;;19.55;6.60;;;;;;;5.72;65.35;97993.52;1748826;82;21283;-67
2021/03/17 14:18:14;;;;;;;12.63;6.72;;;;;;;5.71;65.54;97996.92;1748826;82;21174;-62
2021/03/17 14:20:42;;;;;;;17.35;7.80;;;;;;;5.72;65.70;97999.91;1748801;81;21132;-69
2021/03/17 14:23:09;;;;;;;17.12;7.05;;;;;;;5.66;65.85;97996.85;1748495;81;21293;-68
2021/03/17 14:25:38;;;;;;;17.12;6.87;;;;;;;5.65;66.13;97996.84;1748831;82;21142;-68
2021/03/17 14:28:06;;;;;;;18.00;6.75;;;;;;;5.64;66.29;97992.55;1748551;82;21191;-66
2021/03/17 14:30:34;;;;;;;22.32;7.30;;;;;;;5.63;66.43;98005.77;1748859;81;21297;-67
2021/03/17 14:33:03;;;;;;;21.07;6.72;;;;;;;5.64;66.52;98001.08;1748751;81;21131;-72
2021/03/17 14:35:32;;;;;;;16.23;6.95;;;;;;;5.68;66.51;98001.16;1747847;82;21292;-72
2021/03/17 14:38:01;;;;;;;24.82;7.10;;;;;;;5.69;66.54;98003.71;1748528;81;21295;-71
2021/03/17 14:40:30;;;;;;;19.07;7.22;;;;;;;5.70;66.48;98001.61;1748793;82;21390;-69
2021/03/17 14:42:59;;;;;;;20.37;7.70;;;;;;;5.70;66.62;98007.13;1748504;82;21272;-72
2021/03/17 14:45:28;;;;;;;21.12;6.45;;;;;;;5.69;66.64;98011.39;1748733;81;21154;-70
2021/03/17 14:47:57;;;;;;;17.52;6.65;;;;;;;5.67;66.57;98010.50;1748506;81;21189;-65
2021/03/17 14:50:25;;;;;;;20.80;6.05;;;;;;;5.64;66.61;98010.46;1748688;82;21280;-71
2021/03/17 14:52:53;;;;;;;14.80;6.40;;;;;;;5.63;66.71;98020.27;1748506;82;21275;-71
2021/03/17 14:55:22;;;;;;;18.98;7.10;;;;;;;5.62;66.79;98022.38;1748774;82;21268;-72
2021/03/17 14:57:50;;;;;;;20.17;6.78;;;;;;;5.61;66.94;98024.08;1748662;82;21174;-72
2021/03/17 15:00:21;;;;;;;20.85;7.35;;;;;;;5.57;67.01;98026.16;1748488;82;21280;-69
2021/03/17 15:02:48;;;;;;;16.90;5.97;;;;;;;5.52;67.14;98023.06;1727600;82;21216;-68
2021/03/17 15:05:17;;;;;;;14.75;6.62;;;;;;;5.51;67.25;98032.88;1748705;81;21138;-66
2021/03/17 15:07:45;;;;;;;20.75;6.83;;;;;;;5.48;67.30;98028.56;1748482;82;21304;-64
2021/03/17 15:10:17;;;;;;;17.92;6.78;;;;;;;5.45;67.27;98028.52;1748679;81;21170;-66
2021/03/17 15:12:46;;;;;;;23.32;5.70;;;;;;;5.38;67.40;98031.39;1748811;81;21134;-68
2021/03/17 15:15:17;;;;;;;17.57;6.10;;;;;;;5.33;67.47;98034.29;1748740;82;21276;-64
2021/03/17 15:17:47;;;;;;;18.12;6.40;;;;;;;5.30;67.67;98039.78;1748516;81;21562;-72
2021/03/17 15:20:22;;;;;;;20.43;6.08;;;;;;;5.27;67.85;98046.98;1748433;82;21378;-71
2021/03/17 15:22:53;;;;;;;17.35;6.75;;;;;;;5.26;67.96;98045.25;1748524;82;21268;-62
2021/03/17 15:25:23;;;;;;;16.42;5.78;;;;;;;5.26;67.97;98046.52;1747122;81;21138;-69
2021/03/17 15:27:51;;;;;;;23.80;6.83;;;;;;;5.24;68.14;98048.22;1748693;82;21144;-66
2021/03/17 15:30:20;;;;;;;13.85;6.20;;;;;;;5.23;68.12;98051.17;1748457;82;21138;-69
2021/03/17 15:32:49;;;;;;;19.15;7.40;;;;;;;5.23;68.29;98054.16;1714659;83;21119;-70
2021/03/17 15:35:17;;;;;;;17.25;6.72;;;;;;;5.24;68.39;98055.89;1732996;83;21554;-63
2021/03/17 15:37:48;;;;;;;20.80;6.15;;;;;;;5.24;68.32;98052.06;1732886;83;21150;-69
2021/03/17 15:40:17;;;;;;;14.80;6.35;;;;;;;5.19;68.46;98060.92;1732899;83;21123;-69
2021/03/17 15:42:46;;;;;;;27.95;7.08;;;;;;;5.17;68.61;98065.57;1732694;82;21139;-69
2021/03/17 15:45:18;;;;;;;26.23;7.37;;;;;;;5.13;68.93;98063.78;1732923;83;21280;-65
2021/03/17 15:47:47;;;;;;;17.77;6.20;;;;;;;5.09;69.22;98060.70;1733204;83;21676;-67
2021/03/17 15:50:31;;;;;;;17.30;5.90;;;;;;;5.06;69.34;98062.79;1732844;82;21147;-72
2021/03/17 15:53:00;;;;;;;21.65;6.95;;;;;;;5.07;69.52;98070.07;1732560;82;21159;-66
2021/03/17 15:55:30;;;;;;;22.42;6.65;;;;;;;5.05;69.74;98067.90;1732652;83;21163;-74
2021/03/17 15:58:01;;;;;;;24.40;6.33;;;;;;;5.03;70.07;98069.56;1732721;83;21135;-68
2021/03/17 16:00:30;;;;;;;23.55;7.00;;;;;;;5.00;70.21;98067.38;1732829;81;21155;-68
2021/03/17 16:02:59;;;;;;;16.62;6.35;;;;;;;5.02;70.43;98071.69;1736119;81;21384;-67
2021/03/17 16:05:28;;;;;;;24.85;6.20;;;;;;;4.99;70.57;98072.06;1738524;82;21142;-69
2021/03/17 16:07:56;;;;;;;16.32;5.58;;;;;;;5.00;70.70;98075.05;1738636;82;21309;-66
2021/03/17 16:10:25;;;;;;;21.97;5.75;;;;;;;4.98;70.92;98074.16;1738436;82;21309;-64
2021/03/17 16:12:57;;;;;;;21.52;6.12;;;;;;;4.98;70.98;98084.81;1738602;82;21183;-62
2021/03/17 16:15:28;;;;;;;28.70;6.90;;;;;;;5.00;71.06;98089.12;1735388;82;21171;-64
2021/03/17 16:17:57;;;;;;;17.42;5.83;;;;;;;5.03;71.08;98083.62;1725114;81;21151;-67
2021/03/17 16:20:29;;;;;;;20.77;7.60;;;;;;;5.08;71.09;98087.13;1727238;82;21573;-64
2021/03/17 16:22:58;;;;;;;12.43;6.00;;;;;;;5.07;71.16;98086.70;1709295;83;21186;-65
2021/03/17 16:25:27;;;;;;;18.80;6.12;;;;;;;5.07;71.21;98086.27;1709292;83;21175;-64
2021/03/17 16:27:58;;;;;;;16.30;6.03;;;;;;;5.06;71.31;98095.18;1709348;84;21605;-64
2021/03/17 16:30:26;;;;;;;18.23;6.55;;;;;;;5.05;71.40;98094.75;1709074;84;21158;-65
2021/03/17 16:32:56;;;;;;;20.75;6.22;;;;;;;5.04;71.54;98091.34;1668195;86;21627;-64
2021/03/17 16:35:24;;;;;;;18.98;6.67;;;;;;;5.02;71.66;98099.39;1713358;81;21276;-65
2021/03/17 16:37:51;;;;;;;16.48;6.20;;;;;;;4.99;71.82;98102.75;1709396;83;21123;-66
2021/03/17 16:40:19;;;;;;;19.32;7.40;;;;;;;4.98;71.94;98101.00;1672972;85;21175;-64
2021/03/17 16:42:48;;;;;;;19.45;7.83;;;;;;;4.98;71.96;98106.12;1728955;82;21150;-65
2021/03/17 16:45:16;;;;;;;20.88;6.65;;;;;;;4.95;72.06;98102.66;1724783;82;21316;-62
2021/03/17 16:47:44;;;;;;;24.60;6.95;;;;;;;4.95;72.18;98107.34;1724911;83;21687;-67
2021/03/17 16:50:14;;;;;;;22.48;8.23;;;;;;;;;;1724791;82;21340;-64
2021/03/17 16:52:42;;;;;;;21.55;7.42;;;;;;;5.05;72.26;98114.78;1724585;83;21162;-63
2021/03/17 16:55:11;;;;;;;25.30;7.30;;;;;;;5.10;72.15;98115.73;1724854;83;21287;-61
2021/03/17 16:57:40;;;;;;;20.10;6.45;;;;;;;5.17;71.96;98119.28;1724591;82;21158;-62
2021/03/17 17:00:15;;;;;;;17.30;6.80;;;;;;;5.17;71.77;98121.41;1724698;82;21698;-65
2021/03/17 17:02:43;;;;;;;16.70;6.47;;;;;;;5.17;71.71;98123.11;1721673;83;21185;-63
2021/03/17 17:05:13;;;;;;;13.15;6.05;;;;;;;5.17;71.72;98124.39;1723234;82;21178;-66
2021/03/17 17:07:41;;;;;;;20.05;6.50;;;;;;;5.15;71.58;98120.94;1728676;81;21118;-63
2021/03/17 17:10:32;;;;;;;21.02;6.53;;;;;;;5.15;71.69;98124.34;1730009;82;21264;-64
2021/03/17 17:13:00;;;;;;;20.92;7.37;;;;;;;5.17;71.63;98128.23;1833988;76;21239;-68
2021/03/17 17:15:28;;;;;;;18.65;7.58;;;;;;;5.15;71.62;98128.61;1833299;77;21550;-63
2021/03/17 17:17:57;;;;;;;20.90;7.75;;;;;;;5.12;71.65;98127.28;1837033;77;21214;-66
2021/03/17 17:20:29;;;;;;;22.73;8.10;;;;;;;5.11;71.72;98136.63;1849395;77;21268;-64
2021/03/17 17:22:57;;;;;;;25.82;7.72;;;;;;;5.13;71.73;98137.52;1849358;77;21099;-66
2021/03/17 17:25:28;;;;;;;26.75;8.95;;;;;;;5.11;71.77;98135.77;1849043;77;21138;-68
2021/03/17 17:27:57;;;;;;;18.52;7.95;;;;;;;5.09;71.83;98133.59;1849026;77;21577;-67
2021/03/17 17:30:26;;;;;;;19.27;8.58;;;;;;;5.09;71.89;98136.14;1849379;76;21129;-67
2021/03/17 17:32:55;;;;;;;24.95;8.00;;;;;;;5.09;71.97;98132.31;1849081;76;21260;-65
2021/03/17 17:35:25;;;;;;;23.00;8.60;;;;;;;5.07;72.10;98139.97;1849129;77;21260;-67
2021/03/17 17:37:56;;;;;;;20.70;8.05;;;;;;;5.05;72.20;98141.63;1849217;77;21284;-67
2021/03/17 17:40:31;;;;;;;26.30;8.80;;;;;;;5.03;72.35;98139.45;1849184;77;21122;-68
2021/03/17 17:43:00;;;;;;;21.90;8.95;;;;;;;5.06;72.44;98142.48;1848943;77;21283;-67
2021/03/17 17:45:28;;;;;;;25.27;9.98;;;;;;;5.10;72.43;98139.17;1821496;77;21141;-67
2021/03/17 17:47:58;;;;;;;28.77;9.65;;;;;;;5.13;72.39;98146.89;1816018;77;21340;-66
2021/03/17 17:50:26;;;;;;;25.72;11.83;;;;;;;5.16;72.21;98135.44;1816397;79;21541;-67
2021/03/17 17:52:53;;;;;;;23.98;9.00;;;;;;;5.17;72.10;98137.19;1815968;79;21291;-67
2021/03/17 17:55:21;;;;;;;24.00;9.10;;;;;;;5.14;71.94;98140.55;1816345;78;21756;-68
2021/03/17 17:57:49;;;;;;;23.22;10.25;;;;;;;5.10;71.97;98140.02;1816207;79;21142;-67
2021/03/17 18:00:19;;;;;;;24.23;9.63;;;;;;;5.06;71.99;98134.81;1825145;77;21287;-65
2021/03/17 18:02:48;;;;;;;20.43;8.53;;;;;;;5.03;72.04;98141.16;1840735;77;21153;-68
2021/03/17 18:05:16;;;;;;;20.85;9.03;;;;;;;4.99;72.10;98147.50;1831357;77;21118;-67
2021/03/17 18:07:48;;;;;;;23.10;9.50;;;;;;;4.96;72.19;98146.16;1834127;77;21117;-67
2021/03/17 18:10:26;;;;;;;24.02;9.80;;;;;;;4.94;72.31;98143.13;1833872;77;21125;-68
2021/03/17 18:12:57;;;;;;;24.23;9.28;;;;;;;4.93;72.27;98140.96;1831923;76;21655;-67
2021/03/17 18:15:27;;;;;;;32.17;9.75;;;;;;;4.92;72.32;98138.39;1830704;78;21211;-67
2021/03/17 18:17:57;;;;;;;18.32;8.30;;;;;;;4.90;72.33;98140.91;1796980;79;21298;-68
2021/03/17 18:20:28;;;;;;;22.82;8.65;;;;;;;4.91;72.32;98137.93;1816851;77;21279;-68
2021/03/17 18:23:03;;;;;;;20.02;8.18;;;;;;;4.91;72.33;98140.48;1756246;82;21169;-69
2021/03/17 18:25:30;;;;;;;24.60;8.28;;;;;;;4.91;72.36;98138.81;1787022;80;21137;-69
2021/03/17 18:27:58;;;;;;;24.37;8.68;;;;;;;4.94;72.36;98140.15;1756401;80;21151;-68
2021/03/17 18:30:27;;;;;;;24.10;8.60;;;;;;;4.96;72.20;98138.88;1787267;79;21142;-68
2021/03/17 18:32:57;;;;;;;26.73;9.88;;;;;;;4.97;72.06;98136.37;1787546;79;21706;-67
2021/03/17 18:35:31;;;;;;;20.65;10.15;;;;;;;4.96;71.96;98135.05;1756255;80;21156;-66
2021/03/17 18:37:59;;;;;;;26.52;10.38;;;;;;;4.94;71.95;98138.02;1756422;80;21595;-66
2021/03/17 18:40:29;;;;;;;16.73;8.70;;;;;;;4.91;71.74;98136.26;1787382;80;21134;-69
2021/03/17 18:42:58;;;;;;;23.42;9.40;;;;;;;4.88;71.80;98142.56;1787521;80;21195;-67
2021/03/17 18:45:29;;;;;;;26.45;9.95;;;;;;;4.85;71.83;98138.67;1787473;80;21157;-67
2021/03/17 18:47:59;;;;;;;22.05;9.50;;;;;;;4.82;71.89;98141.17;1793702;79;21220;-67
2021/03/17 18:50:32;;;;;;;23.30;8.63;;;;;;;4.81;71.90;98138.19;1804398;78;21496;-68
2021/03/17 18:53:00;;;;;;;23.62;8.95;;;;;;;4.83;71.83;98139.48;1805996;79;21118;-67
2021/03/17 18:55:32;;;;;;;24.18;7.70;;;;;;;4.87;71.73;98143.41;1814531;79;21339;-67
2021/03/17 18:58:05;;;;;;;17.80;6.83;;;;;;;4.90;71.28;98142.61;1807004;79;21113;-67
2021/03/17 19:00:36;;;;;;;20.30;7.70;;;;;;;4.90;70.81;98146.44;1803250;79;21315;-65
2021/03/17 19:03:06;;;;;;;18.90;6.50;;;;;;;4.91;70.41;98150.32;1805131;79;21272;-67
2021/03/17 19:05:38;;;;;;;16.27;6.25;;;;;;;4.88;69.71;98143.84;1820687;79;21494;-67
2021/03/17 19:08:09;;;;;;;17.87;6.40;;;;;;;4.89;69.63;98155.81;1804239;79;21545;-67
